sensor_id;sensor_type;location;lat;lon;timestamp;P1;durP1;ratioP1;P2;durP2;ratioP2
57697;SDS011;43531;52.152;6.366;2023-03-29T00:00:26;5.88;;;3.95;;
57697;SDS011;43531;52.152;6.366;2023-03-29T00:00:58;5.30;;;3.67;;
57697;SDS011;43531;52.152;6.366;2023-03-29T00:01:30;6.22;;;3.80;;
57697;SDS011;43531;52.152;6.366;2023-03-29T00:02:06;6.50;;;3.45;;
57697;SDS011;43531;52.152;6.366;2023-03-29T00:02:40;4.03;;;3.58;;
57697;SDS011;43531;52.152;6.366;2023-03-29T00:03:12;5.88;;;3.00;;
57697;SDS011;43531;52.152;6.366;2023-03-29T00:03:45;5.43;;;3.60;;
57697;SDS011;43531;52.152;6.366;2023-03-29T00:04:17;5.38;;;3.70;;
57697;SDS011;43531;52.152;6.366;2023-03-29T00:04:52;9.20;;;4.63;;
57697;SDS011;43531;52.152;6.366;2023-03-29T00:05:24;6.50;;;4.35;;
57697;SDS011;43531;52.152;6.366;2023-03-29T00:06:02;4.75;;;3.63;;
57697;SDS011;43531;52.152;6.366;2023-03-29T00:06:34;6.18;;;3.40;;
57697;SDS011;43531;52.152;6.366;2023-03-29T00:07:05;4.40;;;3.50;;
57697;SDS011;43531;52.152;6.366;2023-03-29T00:07:37;5.68;;;3.92;;
57697;SDS011;43531;52.152;6.366;2023-03-29T00:08:09;6.60;;;4.32;;
57697;SDS011;43531;52.152;6.366;2023-03-29T00:08:44;5.80;;;3.90;;
57697;SDS011;43531;52.152;6.366;2023-03-29T00:09:16;4.45;;;3.33;;
57697;SDS011;43531;52.152;6.366;2023-03-29T00:09:48;4.53;;;3.85;;
57697;SDS011;43531;52.152;6.366;2023-03-29T00:10:20;3.83;;;2.88;;
57697;SDS011;43531;52.152;6.366;2023-03-29T00:10:55;7.10;;;3.42;;
57697;SDS011;43531;52.152;6.366;2023-03-29T00:11:29;4.68;;;3.38;;
57697;SDS011;43531;52.152;6.366;2023-03-29T00:12:00;5.25;;;4.07;;
57697;SDS011;43531;52.152;6.366;2023-03-29T00:12:32;5.35;;;3.25;;
57697;SDS011;43531;52.152;6.366;2023-03-29T00:13:04;6.95;;;3.83;;
57697;SDS011;43531;52.152;6.366;2023-03-29T00:13:35;3.83;;;3.40;;
57697;SDS011;43531;52.152;6.366;2023-03-29T00:14:08;6.05;;;3.75;;
57697;SDS011;43531;52.152;6.366;2023-03-29T00:14:40;5.75;;;3.95;;
57697;SDS011;43531;52.152;6.366;2023-03-29T00:15:11;8.05;;;3.88;;
57697;SDS011;43531;52.152;6.366;2023-03-29T00:15:43;7.90;;;3.65;;
57697;SDS011;43531;52.152;6.366;2023-03-29T00:16:15;5.00;;;4.00;;
57697;SDS011;43531;52.152;6.366;2023-03-29T00:16:47;10.85;;;4.10;;
57697;SDS011;43531;52.152;6.366;2023-03-29T00:17:19;4.40;;;3.38;;
57697;SDS011;43531;52.152;6.366;2023-03-29T00:17:50;5.13;;;3.70;;
57697;SDS011;43531;52.152;6.366;2023-03-29T00:18:22;12.57;;;3.78;;
57697;SDS011;43531;52.152;6.366;2023-03-29T00:18:54;7.88;;;3.92;;
57697;SDS011;43531;52.152;6.366;2023-03-29T00:19:25;5.65;;;3.65;;
57697;SDS011;43531;52.152;6.366;2023-03-29T00:19:57;4.57;;;3.25;;
57697;SDS011;43531;52.152;6.366;2023-03-29T00:20:29;7.03;;;4.15;;
57697;SDS011;43531;52.152;6.366;2023-03-29T00:21:01;5.20;;;3.50;;
57697;SDS011;43531;52.152;6.366;2023-03-29T00:21:32;6.97;;;4.03;;
57697;SDS011;43531;52.152;6.366;2023-03-29T00:22:04;4.22;;;3.47;;
57697;SDS011;43531;52.152;6.366;2023-03-29T00:22:39;5.40;;;3.08;;
57697;SDS011;43531;52.152;6.366;2023-03-29T00:23:12;6.72;;;3.75;;
57697;SDS011;43531;52.152;6.366;2023-03-29T00:23:43;4.43;;;3.95;;
57697;SDS011;43531;52.152;6.366;2023-03-29T00:24:15;6.85;;;3.90;;
57697;SDS011;43531;52.152;6.366;2023-03-29T00:24:46;4.50;;;4.07;;
57697;SDS011;43531;52.152;6.366;2023-03-29T00:25:19;4.53;;;3.50;;
57697;SDS011;43531;52.152;6.366;2023-03-29T00:25:54;5.57;;;3.88;;
57697;SDS011;43531;52.152;6.366;2023-03-29T00:26:26;4.85;;;3.40;;
57697;SDS011;43531;52.152;6.366;2023-03-29T00:26:58;5.25;;;3.85;;
57697;SDS011;43531;52.152;6.366;2023-03-29T00:27:29;5.97;;;3.33;;
57697;SDS011;43531;52.152;6.366;2023-03-29T00:28:01;9.00;;;4.10;;
57697;SDS011;43531;52.152;6.366;2023-03-29T00:28:33;3.60;;;3.22;;
57697;SDS011;43531;52.152;6.366;2023-03-29T00:29:04;7.93;;;5.35;;
57697;SDS011;43531;52.152;6.366;2023-03-29T00:29:36;6.07;;;3.42;;
57697;SDS011;43531;52.152;6.366;2023-03-29T00:30:08;6.97;;;3.65;;
57697;SDS011;43531;52.152;6.366;2023-03-29T00:30:40;9.43;;;3.40;;
57697;SDS011;43531;52.152;6.366;2023-03-29T00:31:13;7.88;;;3.70;;
57697;SDS011;43531;52.152;6.366;2023-03-29T00:31:45;7.20;;;3.33;;
57697;SDS011;43531;52.152;6.366;2023-03-29T00:32:24;5.63;;;3.83;;
57697;SDS011;43531;52.152;6.366;2023-03-29T00:32:56;5.50;;;4.03;;
57697;SDS011;43531;52.152;6.366;2023-03-29T00:33:28;4.70;;;3.63;;
57697;SDS011;43531;52.152;6.366;2023-03-29T00:34:00;4.00;;;3.60;;
57697;SDS011;43531;52.152;6.366;2023-03-29T00:34:32;4.00;;;3.45;;
57697;SDS011;43531;52.152;6.366;2023-03-29T00:35:06;6.65;;;3.75;;
57697;SDS011;43531;52.152;6.366;2023-03-29T00:35:39;7.88;;;3.92;;
57697;SDS011;43531;52.152;6.366;2023-03-29T00:36:11;5.57;;;4.63;;
57697;SDS011;43531;52.152;6.366;2023-03-29T00:36:43;6.57;;;5.00;;
57697;SDS011;43531;52.152;6.366;2023-03-29T00:37:15;7.18;;;3.92;;
57697;SDS011;43531;52.152;6.366;2023-03-29T00:37:49;8.07;;;3.78;;
57697;SDS011;43531;52.152;6.366;2023-03-29T00:38:21;7.57;;;3.47;;
57697;SDS011;43531;52.152;6.366;2023-03-29T00:38:54;7.10;;;4.13;;
57697;SDS011;43531;52.152;6.366;2023-03-29T00:39:26;7.00;;;4.53;;
57697;SDS011;43531;52.152;6.366;2023-03-29T00:39:59;4.53;;;3.95;;
57697;SDS011;43531;52.152;6.366;2023-03-29T00:40:31;6.40;;;4.18;;
57697;SDS011;43531;52.152;6.366;2023-03-29T00:41:04;7.28;;;4.18;;
57697;SDS011;43531;52.152;6.366;2023-03-29T00:41:37;5.10;;;3.72;;
57697;SDS011;43531;52.152;6.366;2023-03-29T00:42:12;7.43;;;4.80;;
57697;SDS011;43531;52.152;6.366;2023-03-29T00:42:45;7.88;;;4.40;;
57697;SDS011;43531;52.152;6.366;2023-03-29T00:43:16;8.35;;;4.30;;
57697;SDS011;43531;52.152;6.366;2023-03-29T00:43:52;6.97;;;4.45;;
57697;SDS011;43531;52.152;6.366;2023-03-29T00:44:51;7.07;;;4.70;;
57697;SDS011;43531;52.152;6.366;2023-03-29T00:45:23;6.13;;;4.43;;
57697;SDS011;43531;52.152;6.366;2023-03-29T00:46:00;4.47;;;4.00;;
57697;SDS011;43531;52.152;6.366;2023-03-29T00:46:32;5.78;;;4.30;;
57697;SDS011;43531;52.152;6.366;2023-03-29T00:47:05;7.43;;;4.95;;
57697;SDS011;43531;52.152;6.366;2023-03-29T00:48:42;6.63;;;4.43;;
57697;SDS011;43531;52.152;6.366;2023-03-29T00:49:08;11.80;;;5.38;;
57697;SDS011;43531;52.152;6.366;2023-03-29T00:49:43;8.57;;;4.18;;
57697;SDS011;43531;52.152;6.366;2023-03-29T00:50:19;6.05;;;4.47;;
57697;SDS011;43531;52.152;6.366;2023-03-29T00:50:56;6.38;;;3.80;;
57697;SDS011;43531;52.152;6.366;2023-03-29T00:51:32;6.55;;;4.47;;
57697;SDS011;43531;52.152;6.366;2023-03-29T00:52:06;6.47;;;4.68;;
57697;SDS011;43531;52.152;6.366;2023-03-29T00:52:38;6.03;;;4.82;;
57697;SDS011;43531;52.152;6.366;2023-03-29T00:53:20;7.07;;;4.97;;
57697;SDS011;43531;52.152;6.366;2023-03-29T00:54:04;8.40;;;4.75;;
57697;SDS011;43531;52.152;6.366;2023-03-29T00:54:37;14.43;;;4.82;;
57697;SDS011;43531;52.152;6.366;2023-03-29T00:55:11;6.38;;;4.65;;
57697;SDS011;43531;52.152;6.366;2023-03-29T00:55:51;7.70;;;4.65;;
57697;SDS011;43531;52.152;6.366;2023-03-29T00:57:00;9.25;;;4.78;;
57697;SDS011;43531;52.152;6.366;2023-03-29T00:57:34;10.68;;;5.15;;
57697;SDS011;43531;52.152;6.366;2023-03-29T00:58:08;7.70;;;5.20;;
57697;SDS011;43531;52.152;6.366;2023-03-29T00:58:46;8.23;;;5.72;;
57697;SDS011;43531;52.152;6.366;2023-03-29T00:59:25;12.77;;;5.75;;
57697;SDS011;43531;52.152;6.366;2023-03-29T00:59:58;7.22;;;5.47;;
57697;SDS011;43531;52.152;6.366;2023-03-29T01:00:32;8.05;;;4.47;;
57697;SDS011;43531;52.152;6.366;2023-03-29T01:01:06;10.73;;;6.03;;
57697;SDS011;43531;52.152;6.366;2023-03-29T01:01:44;9.40;;;5.53;;
57697;SDS011;43531;52.152;6.366;2023-03-29T01:02:20;5.82;;;4.93;;
57697;SDS011;43531;52.152;6.366;2023-03-29T01:02:54;9.00;;;5.05;;
57697;SDS011;43531;52.152;6.366;2023-03-29T01:03:34;6.15;;;4.55;;
57697;SDS011;43531;52.152;6.366;2023-03-29T01:04:14;9.82;;;6.80;;
57697;SDS011;43531;52.152;6.366;2023-03-29T01:04:51;10.00;;;5.47;;
57697;SDS011;43531;52.152;6.366;2023-03-29T01:05:28;9.77;;;5.45;;
57697;SDS011;43531;52.152;6.366;2023-03-29T01:06:03;7.82;;;5.40;;
57697;SDS011;43531;52.152;6.366;2023-03-29T01:06:38;7.50;;;4.43;;
57697;SDS011;43531;52.152;6.366;2023-03-29T01:07:49;8.60;;;4.85;;
57697;SDS011;43531;52.152;6.366;2023-03-29T01:08:30;7.40;;;5.60;;
57697;SDS011;43531;52.152;6.366;2023-03-29T01:09:05;8.15;;;4.32;;
57697;SDS011;43531;52.152;6.366;2023-03-29T01:09:40;7.90;;;5.00;;
57697;SDS011;43531;52.152;6.366;2023-03-29T01:10:17;6.50;;;5.00;;
57697;SDS011;43531;52.152;6.366;2023-03-29T01:10:54;6.13;;;4.85;;
57697;SDS011;43531;52.152;6.366;2023-03-29T01:11:49;6.93;;;5.72;;
57697;SDS011;43531;52.152;6.366;2023-03-29T01:12:23;6.93;;;5.10;;
57697;SDS011;43531;52.152;6.366;2023-03-29T01:13:05;9.35;;;5.50;;
57697;SDS011;43531;52.152;6.366;2023-03-29T01:13:40;8.80;;;5.47;;
57697;SDS011;43531;52.152;6.366;2023-03-29T01:14:17;6.45;;;4.85;;
57697;SDS011;43531;52.152;6.366;2023-03-29T01:15:01;8.77;;;5.38;;
57697;SDS011;43531;52.152;6.366;2023-03-29T01:15:36;7.40;;;4.65;;
57697;SDS011;43531;52.152;6.366;2023-03-29T01:16:11;8.25;;;4.78;;
57697;SDS011;43531;52.152;6.366;2023-03-29T01:16:44;10.90;;;6.22;;
57697;SDS011;43531;52.152;6.366;2023-03-29T01:17:16;7.95;;;5.97;;
57697;SDS011;43531;52.152;6.366;2023-03-29T01:17:51;8.35;;;5.63;;
57697;SDS011;43531;52.152;6.366;2023-03-29T01:18:25;7.35;;;5.60;;
57697;SDS011;43531;52.152;6.366;2023-03-29T01:18:57;9.27;;;4.97;;
57697;SDS011;43531;52.152;6.366;2023-03-29T01:19:32;7.32;;;5.28;;
57697;SDS011;43531;52.152;6.366;2023-03-29T01:20:22;8.35;;;6.15;;
57697;SDS011;43531;52.152;6.366;2023-03-29T01:21:13;8.32;;;5.47;;
57697;SDS011;43531;52.152;6.366;2023-03-29T01:21:52;10.73;;;5.80;;
57697;SDS011;43531;52.152;6.366;2023-03-29T01:25:25;6.50;;;4.32;;
57697;SDS011;43531;52.152;6.366;2023-03-29T01:26:20;6.90;;;4.53;;
57697;SDS011;43531;52.152;6.366;2023-03-29T01:28:03;6.47;;;4.57;;
57697;SDS011;43531;52.152;6.366;2023-03-29T01:28:42;6.15;;;4.30;;
57697;SDS011;43531;52.152;6.366;2023-03-29T01:29:57;7.00;;;4.53;;
57697;SDS011;43531;52.152;6.366;2023-03-29T01:30:35;7.50;;;5.25;;
57697;SDS011;43531;52.152;6.366;2023-03-29T01:31:11;11.15;;;5.05;;
57697;SDS011;43531;52.152;6.366;2023-03-29T01:31:59;6.82;;;5.35;;
57697;SDS011;43531;52.152;6.366;2023-03-29T01:32:41;9.02;;;5.32;;
57697;SDS011;43531;52.152;6.366;2023-03-29T01:33:29;9.55;;;5.47;;
57697;SDS011;43531;52.152;6.366;2023-03-29T01:34:04;8.00;;;5.03;;
57697;SDS011;43531;52.152;6.366;2023-03-29T01:34:41;10.23;;;5.72;;
57697;SDS011;43531;52.152;6.366;2023-03-29T01:38:25;14.07;;;5.32;;
57697;SDS011;43531;52.152;6.366;2023-03-29T01:39:01;9.85;;;4.95;;
57697;SDS011;43531;52.152;6.366;2023-03-29T01:39:37;6.97;;;5.13;;
57697;SDS011;43531;52.152;6.366;2023-03-29T01:40:09;8.30;;;5.38;;
57697;SDS011;43531;52.152;6.366;2023-03-29T01:40:40;13.70;;;5.45;;
57697;SDS011;43531;52.152;6.366;2023-03-29T01:41:13;5.53;;;4.97;;
57697;SDS011;43531;52.152;6.366;2023-03-29T01:41:46;9.50;;;5.38;;
57697;SDS011;43531;52.152;6.366;2023-03-29T01:42:28;8.88;;;5.53;;
57697;SDS011;43531;52.152;6.366;2023-03-29T01:44:16;8.02;;;4.88;;
57697;SDS011;43531;52.152;6.366;2023-03-29T01:44:51;7.38;;;5.72;;
57697;SDS011;43531;52.152;6.366;2023-03-29T01:45:33;9.07;;;6.03;;
57697;SDS011;43531;52.152;6.366;2023-03-29T01:46:14;9.52;;;5.56;;
57697;SDS011;43531;52.152;6.366;2023-03-29T01:46:52;8.95;;;5.32;;
57697;SDS011;43531;52.152;6.366;2023-03-29T01:48:31;11.18;;;5.45;;
57697;SDS011;43531;52.152;6.366;2023-03-29T01:49:07;6.90;;;5.95;;
57697;SDS011;43531;52.152;6.366;2023-03-29T01:49:45;10.32;;;6.05;;
57697;SDS011;43531;52.152;6.366;2023-03-29T01:50:41;13.32;;;5.90;;
57697;SDS011;43531;52.152;6.366;2023-03-29T01:51:17;7.53;;;5.43;;
57697;SDS011;43531;52.152;6.366;2023-03-29T01:52:05;8.25;;;5.00;;
57697;SDS011;43531;52.152;6.366;2023-03-29T01:52:48;10.63;;;5.45;;
57697;SDS011;43531;52.152;6.366;2023-03-29T01:53:28;6.75;;;5.57;;
57697;SDS011;43531;52.152;6.366;2023-03-29T01:54:03;6.18;;;4.38;;
57697;SDS011;43531;52.152;6.366;2023-03-29T01:54:42;9.75;;;5.60;;
57697;SDS011;43531;52.152;6.366;2023-03-29T01:55:19;10.68;;;5.93;;
57697;SDS011;43531;52.152;6.366;2023-03-29T01:55:54;8.90;;;5.28;;
57697;SDS011;43531;52.152;6.366;2023-03-29T01:56:28;10.30;;;6.47;;
57697;SDS011;43531;52.152;6.366;2023-03-29T01:57:02;9.63;;;5.97;;
57697;SDS011;43531;52.152;6.366;2023-03-29T01:57:36;11.77;;;6.15;;
57697;SDS011;43531;52.152;6.366;2023-03-29T01:58:09;6.90;;;5.38;;
57697;SDS011;43531;52.152;6.366;2023-03-29T01:58:48;8.18;;;4.63;;
57697;SDS011;43531;52.152;6.366;2023-03-29T01:59:25;13.73;;;6.20;;
57697;SDS011;43531;52.152;6.366;2023-03-29T02:00:00;10.38;;;6.03;;
57697;SDS011;43531;52.152;6.366;2023-03-29T02:00:45;6.30;;;5.00;;
57697;SDS011;43531;52.152;6.366;2023-03-29T02:01:24;10.55;;;5.63;;
57697;SDS011;43531;52.152;6.366;2023-03-29T02:01:59;7.30;;;5.40;;
57697;SDS011;43531;52.152;6.366;2023-03-29T02:02:32;11.57;;;5.70;;
57697;SDS011;43531;52.152;6.366;2023-03-29T02:03:06;7.78;;;5.57;;
57697;SDS011;43531;52.152;6.366;2023-03-29T02:03:40;7.07;;;4.95;;
57697;SDS011;43531;52.152;6.366;2023-03-29T02:04:13;13.90;;;5.32;;
57697;SDS011;43531;52.152;6.366;2023-03-29T02:04:57;10.57;;;4.93;;
57697;SDS011;43531;52.152;6.366;2023-03-29T02:05:29;8.48;;;4.82;;
57697;SDS011;43531;52.152;6.366;2023-03-29T02:06:01;9.77;;;5.82;;
57697;SDS011;43531;52.152;6.366;2023-03-29T02:06:33;13.50;;;5.32;;
57697;SDS011;43531;52.152;6.366;2023-03-29T02:07:06;10.32;;;6.03;;
57697;SDS011;43531;52.152;6.366;2023-03-29T02:07:39;8.07;;;5.28;;
57697;SDS011;43531;52.152;6.366;2023-03-29T02:08:12;12.68;;;5.07;;
57697;SDS011;43531;52.152;6.366;2023-03-29T02:08:44;8.05;;;5.57;;
57697;SDS011;43531;52.152;6.366;2023-03-29T02:09:17;10.32;;;5.72;;
57697;SDS011;43531;52.152;6.366;2023-03-29T02:09:49;11.73;;;5.72;;
57697;SDS011;43531;52.152;6.366;2023-03-29T02:10:22;10.07;;;5.60;;
57697;SDS011;43531;52.152;6.366;2023-03-29T02:10:54;6.13;;;5.20;;
57697;SDS011;43531;52.152;6.366;2023-03-29T02:11:26;5.60;;;5.03;;
57697;SDS011;43531;52.152;6.366;2023-03-29T02:11:59;6.15;;;4.43;;
57697;SDS011;43531;52.152;6.366;2023-03-29T02:12:31;10.20;;;5.72;;
57697;SDS011;43531;52.152;6.366;2023-03-29T02:13:05;8.50;;;5.32;;
57697;SDS011;43531;52.152;6.366;2023-03-29T02:13:37;10.32;;;5.90;;
57697;SDS011;43531;52.152;6.366;2023-03-29T02:14:09;6.65;;;4.55;;
57697;SDS011;43531;52.152;6.366;2023-03-29T02:14:40;6.97;;;4.85;;
57697;SDS011;43531;52.152;6.366;2023-03-29T02:15:13;10.20;;;5.13;;
57697;SDS011;43531;52.152;6.366;2023-03-29T02:15:47;8.15;;;4.80;;
57697;SDS011;43531;52.152;6.366;2023-03-29T02:16:18;6.95;;;5.90;;
57697;SDS011;43531;52.152;6.366;2023-03-29T02:16:50;10.40;;;5.05;;
57697;SDS011;43531;52.152;6.366;2023-03-29T02:17:23;5.40;;;4.50;;
57697;SDS011;43531;52.152;6.366;2023-03-29T02:17:55;7.53;;;4.75;;
57697;SDS011;43531;52.152;6.366;2023-03-29T02:18:27;8.77;;;4.65;;
57697;SDS011;43531;52.152;6.366;2023-03-29T02:19:00;8.27;;;4.82;;
57697;SDS011;43531;52.152;6.366;2023-03-29T02:19:32;8.05;;;4.22;;
57697;SDS011;43531;52.152;6.366;2023-03-29T02:20:06;6.22;;;5.03;;
57697;SDS011;43531;52.152;6.366;2023-03-29T02:20:45;8.23;;;4.50;;
57697;SDS011;43531;52.152;6.366;2023-03-29T02:21:25;4.80;;;4.35;;
57697;SDS011;43531;52.152;6.366;2023-03-29T02:22:04;7.03;;;4.13;;
57697;SDS011;43531;52.152;6.366;2023-03-29T02:22:53;10.80;;;5.20;;
57697;SDS011;43531;52.152;6.366;2023-03-29T02:23:33;6.70;;;5.43;;
57697;SDS011;43531;52.152;6.366;2023-03-29T02:24:09;10.65;;;4.72;;
57697;SDS011;43531;52.152;6.366;2023-03-29T02:24:42;9.57;;;5.70;;
57697;SDS011;43531;52.152;6.366;2023-03-29T02:25:15;8.50;;;5.57;;
57697;SDS011;43531;52.152;6.366;2023-03-29T02:25:48;11.07;;;4.93;;
57697;SDS011;43531;52.152;6.366;2023-03-29T02:26:21;6.72;;;5.00;;
57697;SDS011;43531;52.152;6.366;2023-03-29T02:26:54;16.75;;;6.05;;
57697;SDS011;43531;52.152;6.366;2023-03-29T02:27:26;7.15;;;4.05;;
57697;SDS011;43531;52.152;6.366;2023-03-29T02:28:00;8.35;;;4.25;;
57697;SDS011;43531;52.152;6.366;2023-03-29T02:28:33;7.78;;;4.50;;
57697;SDS011;43531;52.152;6.366;2023-03-29T02:29:06;7.45;;;3.85;;
57697;SDS011;43531;52.152;6.366;2023-03-29T02:29:39;5.97;;;4.32;;
57697;SDS011;43531;52.152;6.366;2023-03-29T02:30:11;7.90;;;4.38;;
57697;SDS011;43531;52.152;6.366;2023-03-29T02:30:53;7.00;;;4.68;;
57697;SDS011;43531;52.152;6.366;2023-03-29T02:31:28;8.18;;;4.38;;
57697;SDS011;43531;52.152;6.366;2023-03-29T02:32:14;6.47;;;4.00;;
57697;SDS011;43531;52.152;6.366;2023-03-29T02:32:59;8.35;;;3.70;;
57697;SDS011;43531;52.152;6.366;2023-03-29T02:33:42;7.18;;;4.32;;
57697;SDS011;43531;52.152;6.366;2023-03-29T02:34:20;5.63;;;4.75;;
57697;SDS011;43531;52.152;6.366;2023-03-29T02:35:10;6.15;;;3.92;;
57697;SDS011;43531;52.152;6.366;2023-03-29T02:35:49;6.93;;;4.82;;
57697;SDS011;43531;52.152;6.366;2023-03-29T02:37:17;5.53;;;4.22;;
57697;SDS011;43531;52.152;6.366;2023-03-29T02:37:49;5.32;;;3.90;;
57697;SDS011;43531;52.152;6.366;2023-03-29T02:38:24;4.88;;;3.90;;
57697;SDS011;43531;52.152;6.366;2023-03-29T02:38:58;8.15;;;4.00;;
57697;SDS011;43531;52.152;6.366;2023-03-29T02:39:32;4.22;;;3.67;;
57697;SDS011;43531;52.152;6.366;2023-03-29T02:40:05;9.65;;;4.55;;
57697;SDS011;43531;52.152;6.366;2023-03-29T02:40:39;4.78;;;4.15;;
57697;SDS011;43531;52.152;6.366;2023-03-29T02:41:12;9.85;;;3.95;;
57697;SDS011;43531;52.152;6.366;2023-03-29T02:41:45;7.10;;;4.20;;
57697;SDS011;43531;52.152;6.366;2023-03-29T02:42:19;8.18;;;4.70;;
57697;SDS011;43531;52.152;6.366;2023-03-29T02:42:51;5.15;;;4.32;;
57697;SDS011;43531;52.152;6.366;2023-03-29T02:43:26;6.78;;;3.90;;
57697;SDS011;43531;52.152;6.366;2023-03-29T02:43:58;10.55;;;4.45;;
57697;SDS011;43531;52.152;6.366;2023-03-29T02:44:32;8.35;;;4.03;;
57697;SDS011;43531;52.152;6.366;2023-03-29T02:45:07;6.57;;;3.92;;
57697;SDS011;43531;52.152;6.366;2023-03-29T02:45:40;6.97;;;5.38;;
57697;SDS011;43531;52.152;6.366;2023-03-29T02:46:13;5.45;;;3.97;;
57697;SDS011;43531;52.152;6.366;2023-03-29T02:46:46;4.85;;;3.47;;
57697;SDS011;43531;52.152;6.366;2023-03-29T02:47:25;6.75;;;3.95;;
57697;SDS011;43531;52.152;6.366;2023-03-29T02:48:04;5.15;;;4.50;;
57697;SDS011;43531;52.152;6.366;2023-03-29T02:48:37;6.55;;;4.72;;
57697;SDS011;43531;52.152;6.366;2023-03-29T02:49:09;6.55;;;4.35;;
57697;SDS011;43531;52.152;6.366;2023-03-29T02:49:41;8.95;;;4.05;;
57697;SDS011;43531;52.152;6.366;2023-03-29T02:50:13;4.63;;;3.55;;
57697;SDS011;43531;52.152;6.366;2023-03-29T02:50:46;5.35;;;4.00;;
57697;SDS011;43531;52.152;6.366;2023-03-29T02:51:23;4.50;;;4.00;;
57697;SDS011;43531;52.152;6.366;2023-03-29T02:52:00;4.00;;;3.58;;
57697;SDS011;43531;52.152;6.366;2023-03-29T02:52:40;6.88;;;4.15;;
57697;SDS011;43531;52.152;6.366;2023-03-29T02:53:18;7.32;;;4.38;;
57697;SDS011;43531;52.152;6.366;2023-03-29T02:54:27;7.13;;;3.83;;
57697;SDS011;43531;52.152;6.366;2023-03-29T02:54:53;6.63;;;4.22;;
57697;SDS011;43531;52.152;6.366;2023-03-29T02:55:26;5.28;;;3.55;;
57697;SDS011;43531;52.152;6.366;2023-03-29T02:56:01;5.10;;;3.25;;
57697;SDS011;43531;52.152;6.366;2023-03-29T02:56:43;5.05;;;4.18;;
57697;SDS011;43531;52.152;6.366;2023-03-29T02:57:20;5.45;;;3.53;;
57697;SDS011;43531;52.152;6.366;2023-03-29T02:57:57;6.82;;;4.70;;
57697;SDS011;43531;52.152;6.366;2023-03-29T02:58:28;5.85;;;4.03;;
57697;SDS011;43531;52.152;6.366;2023-03-29T02:59:01;8.35;;;3.80;;
57697;SDS011;43531;52.152;6.366;2023-03-29T02:59:33;8.77;;;4.15;;
57697;SDS011;43531;52.152;6.366;2023-03-29T03:00:05;4.78;;;3.75;;
57697;SDS011;43531;52.152;6.366;2023-03-29T03:00:41;5.45;;;3.97;;
57697;SDS011;43531;52.152;6.366;2023-03-29T03:01:17;5.70;;;3.58;;
57697;SDS011;43531;52.152;6.366;2023-03-29T03:01:52;6.68;;;3.90;;
57697;SDS011;43531;52.152;6.366;2023-03-29T03:02:25;7.22;;;5.53;;
57697;SDS011;43531;52.152;6.366;2023-03-29T03:02:59;7.72;;;3.63;;
57697;SDS011;43531;52.152;6.366;2023-03-29T03:03:32;4.10;;;3.67;;
57697;SDS011;43531;52.152;6.366;2023-03-29T03:04:05;4.68;;;3.63;;
57697;SDS011;43531;52.152;6.366;2023-03-29T03:04:37;6.78;;;5.07;;
57697;SDS011;43531;52.152;6.366;2023-03-29T03:05:08;5.40;;;3.67;;
57697;SDS011;43531;52.152;6.366;2023-03-29T03:05:40;4.95;;;3.47;;
57697;SDS011;43531;52.152;6.366;2023-03-29T03:06:12;9.48;;;4.55;;
57697;SDS011;43531;52.152;6.366;2023-03-29T03:06:43;5.07;;;4.18;;
57697;SDS011;43531;52.152;6.366;2023-03-29T03:07:15;5.07;;;3.65;;
57697;SDS011;43531;52.152;6.366;2023-03-29T03:07:47;6.28;;;3.65;;
57697;SDS011;43531;52.152;6.366;2023-03-29T03:08:18;7.32;;;4.88;;
57697;SDS011;43531;52.152;6.366;2023-03-29T03:08:53;7.93;;;3.78;;
57697;SDS011;43531;52.152;6.366;2023-03-29T03:09:25;4.35;;;3.28;;
57697;SDS011;43531;52.152;6.366;2023-03-29T03:09:57;4.43;;;3.58;;
57697;SDS011;43531;52.152;6.366;2023-03-29T03:10:29;4.25;;;3.42;;
57697;SDS011;43531;52.152;6.366;2023-03-29T03:11:03;6.65;;;4.10;;
57697;SDS011;43531;52.152;6.366;2023-03-29T03:11:35;5.60;;;3.90;;
57697;SDS011;43531;52.152;6.366;2023-03-29T03:12:07;4.07;;;3.25;;
57697;SDS011;43531;52.152;6.366;2023-03-29T03:12:39;7.47;;;3.67;;
57697;SDS011;43531;52.152;6.366;2023-03-29T03:13:10;5.63;;;3.95;;
57697;SDS011;43531;52.152;6.366;2023-03-29T03:13:44;8.80;;;3.88;;
57697;SDS011;43531;52.152;6.366;2023-03-29T03:14:16;5.00;;;4.50;;
57697;SDS011;43531;52.152;6.366;2023-03-29T03:14:49;4.78;;;3.85;;
57697;SDS011;43531;52.152;6.366;2023-03-29T03:15:20;6.55;;;4.80;;
57697;SDS011;43531;52.152;6.366;2023-03-29T03:15:52;7.50;;;5.40;;
57697;SDS011;43531;52.152;6.366;2023-03-29T03:16:24;5.13;;;3.65;;
57697;SDS011;43531;52.152;6.366;2023-03-29T03:16:56;4.70;;;3.67;;
57697;SDS011;43531;52.152;6.366;2023-03-29T03:17:28;8.10;;;4.70;;
57697;SDS011;43531;52.152;6.366;2023-03-29T03:18:01;6.65;;;4.40;;
57697;SDS011;43531;52.152;6.366;2023-03-29T03:18:34;9.07;;;3.42;;
57697;SDS011;43531;52.152;6.366;2023-03-29T03:19:05;5.10;;;3.72;;
57697;SDS011;43531;52.152;6.366;2023-03-29T03:19:37;5.47;;;3.67;;
57697;SDS011;43531;52.152;6.366;2023-03-29T03:20:09;5.13;;;4.55;;
57697;SDS011;43531;52.152;6.366;2023-03-29T03:20:57;4.53;;;3.90;;
57697;SDS011;43531;52.152;6.366;2023-03-29T03:21:32;4.90;;;3.88;;
57697;SDS011;43531;52.152;6.366;2023-03-29T03:22:05;5.97;;;3.53;;
57697;SDS011;43531;52.152;6.366;2023-03-29T03:22:38;4.50;;;3.63;;
57697;SDS011;43531;52.152;6.366;2023-03-29T03:23:14;4.40;;;3.20;;
57697;SDS011;43531;52.152;6.366;2023-03-29T03:23:46;4.47;;;3.25;;
57697;SDS011;43531;52.152;6.366;2023-03-29T03:24:18;4.82;;;3.50;;
57697;SDS011;43531;52.152;6.366;2023-03-29T03:24:50;4.75;;;4.28;;
57697;SDS011;43531;52.152;6.366;2023-03-29T03:25:22;12.95;;;4.60;;
57697;SDS011;43531;52.152;6.366;2023-03-29T03:25:54;5.47;;;3.08;;
57697;SDS011;43531;52.152;6.366;2023-03-29T03:26:26;5.15;;;3.78;;
57697;SDS011;43531;52.152;6.366;2023-03-29T03:27:00;5.68;;;3.70;;
57697;SDS011;43531;52.152;6.366;2023-03-29T03:27:32;7.25;;;5.00;;
57697;SDS011;43531;52.152;6.366;2023-03-29T03:28:04;9.57;;;3.83;;
57697;SDS011;43531;52.152;6.366;2023-03-29T03:28:35;3.92;;;3.55;;
57697;SDS011;43531;52.152;6.366;2023-03-29T03:29:09;5.13;;;3.97;;
57697;SDS011;43531;52.152;6.366;2023-03-29T03:30:03;8.73;;;5.32;;
57697;SDS011;43531;52.152;6.366;2023-03-29T03:31:05;5.55;;;3.80;;
57697;SDS011;43531;52.152;6.366;2023-03-29T03:32:03;6.10;;;4.05;;
57697;SDS011;43531;52.152;6.366;2023-03-29T03:32:54;4.82;;;3.60;;
57697;SDS011;43531;52.152;6.366;2023-03-29T03:33:49;4.15;;;3.75;;
57697;SDS011;43531;52.152;6.366;2023-03-29T03:34:39;4.47;;;3.13;;
57697;SDS011;43531;52.152;6.366;2023-03-29T03:35:11;5.20;;;4.00;;
57697;SDS011;43531;52.152;6.366;2023-03-29T03:35:44;4.82;;;4.35;;
57697;SDS011;43531;52.152;6.366;2023-03-29T03:36:18;8.57;;;3.92;;
57697;SDS011;43531;52.152;6.366;2023-03-29T03:36:49;6.28;;;3.70;;
57697;SDS011;43531;52.152;6.366;2023-03-29T03:37:21;8.05;;;4.50;;
57697;SDS011;43531;52.152;6.366;2023-03-29T03:37:54;5.15;;;3.80;;
57697;SDS011;43531;52.152;6.366;2023-03-29T03:38:26;6.80;;;4.75;;
57697;SDS011;43531;52.152;6.366;2023-03-29T03:39:01;4.63;;;4.05;;
57697;SDS011;43531;52.152;6.366;2023-03-29T03:39:36;4.78;;;3.92;;
57697;SDS011;43531;52.152;6.366;2023-03-29T03:40:09;8.88;;;4.05;;
57697;SDS011;43531;52.152;6.366;2023-03-29T03:40:42;8.07;;;4.10;;
57697;SDS011;43531;52.152;6.366;2023-03-29T03:41:14;8.13;;;3.75;;
57697;SDS011;43531;52.152;6.366;2023-03-29T03:41:46;14.32;;;5.05;;
57697;SDS011;43531;52.152;6.366;2023-03-29T03:42:18;6.68;;;3.85;;
57697;SDS011;43531;52.152;6.366;2023-03-29T03:42:50;7.38;;;4.32;;
57697;SDS011;43531;52.152;6.366;2023-03-29T03:43:22;5.47;;;4.30;;
57697;SDS011;43531;52.152;6.366;2023-03-29T03:43:54;5.05;;;4.05;;
57697;SDS011;43531;52.152;6.366;2023-03-29T03:44:26;4.70;;;3.75;;